Courtenay, North Dakota
Current Conditions -  °F | °C
As of 3:56 PM on Thursday 18 Dec 2014 (Local Time) from KJMS Reporting Station
Overcast Overcast  
Wind Chill: 11°   Ceiling: 800
Heat Index: 22°   Visibility: 9mi
Dew Point: 18°   Wind: 10mph
Humidity: 85%   Direction: 170°S
Pressure: 30.08"   Gusts: NA
Location:  47.22°N, 98.57°W
Report Text: KJMS 182156Z AUTO 17009KT 9SM OVC008 M06/M08 A3008 RMK AO2 SLP217 T10561078
Loading
Personal Weather Stations






























Interactive Weather Map New forecast layout! Learn more

10-Day Weather Forecast

Advertisements
Track Severe Weather on mobile